sensor_id;sensor_type;location;lat;lon;timestamp;P1;durP1;ratioP1;P2;durP2;ratioP2
15831;SDS011;8016;49.928;9.372;2023-03-19T00:01:24;24.37;;;16.80;;
15831;SDS011;8016;49.928;9.372;2023-03-19T00:03:50;40.90;;;26.13;;
15831;SDS011;8016;49.928;9.372;2023-03-19T00:06:16;41.00;;;25.17;;
15831;SDS011;8016;49.928;9.372;2023-03-19T00:08:42;37.47;;;26.70;;
15831;SDS011;8016;49.928;9.372;2023-03-19T00:11:09;35.30;;;23.90;;
15831;SDS011;8016;49.928;9.372;2023-03-19T00:13:36;29.00;;;20.67;;
15831;SDS011;8016;49.928;9.372;2023-03-19T00:16:02;34.23;;;21.80;;
15831;SDS011;8016;49.928;9.372;2023-03-19T00:18:28;31.47;;;21.30;;
15831;SDS011;8016;49.928;9.372;2023-03-19T00:20:54;32.73;;;21.40;;
15831;SDS011;8016;49.928;9.372;2023-03-19T00:23:20;38.53;;;24.67;;
15831;SDS011;8016;49.928;9.372;2023-03-19T00:25:47;36.87;;;25.37;;
15831;SDS011;8016;49.928;9.372;2023-03-19T00:28:13;37.43;;;25.30;;
15831;SDS011;8016;49.928;9.372;2023-03-19T00:30:39;33.47;;;22.13;;
15831;SDS011;8016;49.928;9.372;2023-03-19T00:33:05;30.80;;;20.67;;
15831;SDS011;8016;49.928;9.372;2023-03-19T00:35:32;24.93;;;18.77;;
15831;SDS011;8016;49.928;9.372;2023-03-19T00:37:58;25.13;;;17.97;;
15831;SDS011;8016;49.928;9.372;2023-03-19T00:40:24;37.27;;;20.43;;
15831;SDS011;8016;49.928;9.372;2023-03-19T00:42:50;23.60;;;17.10;;
15831;SDS011;8016;49.928;9.372;2023-03-19T00:45:16;24.33;;;18.20;;
15831;SDS011;8016;49.928;9.372;2023-03-19T00:47:42;22.90;;;16.30;;
15831;SDS011;8016;49.928;9.372;2023-03-19T00:50:08;20.63;;;14.70;;
15831;SDS011;8016;49.928;9.372;2023-03-19T00:52:34;24.37;;;17.37;;
15831;SDS011;8016;49.928;9.372;2023-03-19T00:55:00;25.73;;;17.83;;
15831;SDS011;8016;49.928;9.372;2023-03-19T00:57:26;30.53;;;19.37;;
15831;SDS011;8016;49.928;9.372;2023-03-19T00:59:52;28.27;;;17.57;;
15831;SDS011;8016;49.928;9.372;2023-03-19T01:02:18;24.83;;;16.83;;
15831;SDS011;8016;49.928;9.372;2023-03-19T01:04:46;26.60;;;16.23;;
15831;SDS011;8016;49.928;9.372;2023-03-19T01:07:12;21.17;;;16.23;;
15831;SDS011;8016;49.928;9.372;2023-03-19T01:09:38;23.33;;;16.57;;
15831;SDS011;8016;49.928;9.372;2023-03-19T01:12:05;24.03;;;16.17;;
15831;SDS011;8016;49.928;9.372;2023-03-19T01:14:31;20.47;;;14.13;;
15831;SDS011;8016;49.928;9.372;2023-03-19T01:16:57;19.40;;;13.83;;
15831;SDS011;8016;49.928;9.372;2023-03-19T01:19:23;15.67;;;11.37;;
15831;SDS011;8016;49.928;9.372;2023-03-19T01:21:49;18.20;;;13.40;;
15831;SDS011;8016;49.928;9.372;2023-03-19T01:24:15;18.93;;;13.77;;
15831;SDS011;8016;49.928;9.372;2023-03-19T01:26:42;20.40;;;13.57;;
15831;SDS011;8016;49.928;9.372;2023-03-19T01:29:08;19.63;;;12.20;;
15831;SDS011;8016;49.928;9.372;2023-03-19T01:31:34;16.17;;;10.87;;
15831;SDS011;8016;49.928;9.372;2023-03-19T01:34:01;16.40;;;12.83;;
15831;SDS011;8016;49.928;9.372;2023-03-19T01:36:27;13.07;;;10.60;;
15831;SDS011;8016;49.928;9.372;2023-03-19T01:38:53;16.47;;;11.43;;
15831;SDS011;8016;49.928;9.372;2023-03-19T01:41:21;16.27;;;12.23;;
15831;SDS011;8016;49.928;9.372;2023-03-19T01:43:46;19.53;;;12.50;;
15831;SDS011;8016;49.928;9.372;2023-03-19T01:46:22;16.93;;;12.67;;
15831;SDS011;8016;49.928;9.372;2023-03-19T01:48:52;16.50;;;11.70;;
15831;SDS011;8016;49.928;9.372;2023-03-19T01:51:19;20.23;;;12.47;;
15831;SDS011;8016;49.928;9.372;2023-03-19T01:53:47;19.83;;;11.97;;
15831;SDS011;8016;49.928;9.372;2023-03-19T01:56:15;14.73;;;11.50;;
15831;SDS011;8016;49.928;9.372;2023-03-19T01:58:42;13.13;;;10.47;;
15831;SDS011;8016;49.928;9.372;2023-03-19T02:01:09;16.57;;;11.93;;
15831;SDS011;8016;49.928;9.372;2023-03-19T02:03:36;14.53;;;9.50;;
15831;SDS011;8016;49.928;9.372;2023-03-19T02:06:02;11.93;;;10.07;;
15831;SDS011;8016;49.928;9.372;2023-03-19T02:08:28;17.67;;;10.60;;
15831;SDS011;8016;49.928;9.372;2023-03-19T02:10:55;17.10;;;10.73;;
15831;SDS011;8016;49.928;9.372;2023-03-19T02:13:24;16.67;;;11.50;;
15831;SDS011;8016;49.928;9.372;2023-03-19T02:15:50;13.67;;;9.60;;
15831;SDS011;8016;49.928;9.372;2023-03-19T02:18:16;12.37;;;10.30;;
15831;SDS011;8016;49.928;9.372;2023-03-19T02:28:16;14.67;;;11.00;;
15831;SDS011;8016;49.928;9.372;2023-03-19T02:30:43;12.53;;;9.60;;
15831;SDS011;8016;49.928;9.372;2023-03-19T02:33:13;11.33;;;9.23;;
15831;SDS011;8016;49.928;9.372;2023-03-19T02:35:40;13.87;;;9.30;;
15831;SDS011;8016;49.928;9.372;2023-03-19T02:38:06;14.50;;;9.67;;
15831;SDS011;8016;49.928;9.372;2023-03-19T02:40:37;10.67;;;9.23;;
15831;SDS011;8016;49.928;9.372;2023-03-19T02:43:04;12.33;;;9.23;;
15831;SDS011;8016;49.928;9.372;2023-03-19T02:45:30;15.57;;;9.57;;
15831;SDS011;8016;49.928;9.372;2023-03-19T02:47:57;12.80;;;10.30;;
15831;SDS011;8016;49.928;9.372;2023-03-19T02:50:23;14.03;;;9.80;;
15831;SDS011;8016;49.928;9.372;2023-03-19T02:52:49;13.10;;;10.20;;
15831;SDS011;8016;49.928;9.372;2023-03-19T02:55:15;13.30;;;10.03;;
15831;SDS011;8016;49.928;9.372;2023-03-19T02:57:42;14.73;;;10.37;;
15831;SDS011;8016;49.928;9.372;2023-03-19T03:00:09;19.17;;;13.23;;
15831;SDS011;8016;49.928;9.372;2023-03-19T03:02:36;19.37;;;13.97;;
15831;SDS011;8016;49.928;9.372;2023-03-19T03:05:02;17.47;;;10.63;;
15831;SDS011;8016;49.928;9.372;2023-03-19T03:07:28;14.70;;;10.57;;
15831;SDS011;8016;49.928;9.372;2023-03-19T03:09:55;15.10;;;11.70;;
15831;SDS011;8016;49.928;9.372;2023-03-19T03:12:21;14.40;;;10.80;;
15831;SDS011;8016;49.928;9.372;2023-03-19T03:14:47;16.00;;;12.53;;
15831;SDS011;8016;49.928;9.372;2023-03-19T03:17:13;14.90;;;11.13;;
15831;SDS011;8016;49.928;9.372;2023-03-19T03:19:39;18.00;;;12.63;;
15831;SDS011;8016;49.928;9.372;2023-03-19T03:22:05;18.50;;;12.70;;
15831;SDS011;8016;49.928;9.372;2023-03-19T03:24:32;15.37;;;11.40;;
15831;SDS011;8016;49.928;9.372;2023-03-19T03:26:58;12.77;;;9.20;;
15831;SDS011;8016;49.928;9.372;2023-03-19T03:29:24;10.63;;;9.53;;
15831;SDS011;8016;49.928;9.372;2023-03-19T03:31:50;11.00;;;9.10;;
15831;SDS011;8016;49.928;9.372;2023-03-19T03:34:16;12.17;;;10.30;;
15831;SDS011;8016;49.928;9.372;2023-03-19T03:36:42;14.37;;;10.83;;
15831;SDS011;8016;49.928;9.372;2023-03-19T03:39:08;13.30;;;10.40;;
15831;SDS011;8016;49.928;9.372;2023-03-19T03:41:34;11.93;;;10.70;;
15831;SDS011;8016;49.928;9.372;2023-03-19T03:44:00;11.80;;;9.97;;
15831;SDS011;8016;49.928;9.372;2023-03-19T03:46:26;14.17;;;9.70;;
15831;SDS011;8016;49.928;9.372;2023-03-19T03:48:52;10.87;;;9.53;;
15831;SDS011;8016;49.928;9.372;2023-03-19T03:51:18;17.20;;;9.73;;
15831;SDS011;8016;49.928;9.372;2023-03-19T03:53:45;12.13;;;9.33;;
15831;SDS011;8016;49.928;9.372;2023-03-19T03:56:11;10.80;;;9.50;;
15831;SDS011;8016;49.928;9.372;2023-03-19T03:58:37;12.37;;;9.73;;
15831;SDS011;8016;49.928;9.372;2023-03-19T04:01:03;11.57;;;8.73;;
15831;SDS011;8016;49.928;9.372;2023-03-19T04:03:31;13.87;;;8.90;;
15831;SDS011;8016;49.928;9.372;2023-03-19T04:05:57;13.50;;;8.93;;
15831;SDS011;8016;49.928;9.372;2023-03-19T04:08:22;10.20;;;8.23;;
15831;SDS011;8016;49.928;9.372;2023-03-19T04:10:48;10.93;;;8.40;;
15831;SDS011;8016;49.928;9.372;2023-03-19T04:13:14;9.87;;;7.73;;
15831;SDS011;8016;49.928;9.372;2023-03-19T04:15:41;8.70;;;6.93;;
15831;SDS011;8016;49.928;9.372;2023-03-19T04:18:07;7.40;;;6.57;;
15831;SDS011;8016;49.928;9.372;2023-03-19T04:20:33;10.33;;;6.60;;
15831;SDS011;8016;49.928;9.372;2023-03-19T04:22:59;8.70;;;7.50;;
15831;SDS011;8016;49.928;9.372;2023-03-19T04:25:26;9.27;;;7.40;;
15831;SDS011;8016;49.928;9.372;2023-03-19T04:27:52;9.10;;;7.00;;
15831;SDS011;8016;49.928;9.372;2023-03-19T04:30:18;9.40;;;7.70;;
15831;SDS011;8016;49.928;9.372;2023-03-19T04:32:44;10.50;;;6.97;;
15831;SDS011;8016;49.928;9.372;2023-03-19T04:35:11;7.40;;;6.53;;
15831;SDS011;8016;49.928;9.372;2023-03-19T04:37:38;8.33;;;7.20;;
15831;SDS011;8016;49.928;9.372;2023-03-19T04:40:04;9.73;;;7.33;;
15831;SDS011;8016;49.928;9.372;2023-03-19T04:42:30;9.57;;;6.83;;
15831;SDS011;8016;49.928;9.372;2023-03-19T04:44:56;7.93;;;6.67;;
15831;SDS011;8016;49.928;9.372;2023-03-19T04:47:22;12.03;;;7.57;;
15831;SDS011;8016;49.928;9.372;2023-03-19T04:49:48;7.90;;;7.10;;
15831;SDS011;8016;49.928;9.372;2023-03-19T04:52:14;8.17;;;7.27;;
15831;SDS011;8016;49.928;9.372;2023-03-19T04:54:40;9.10;;;6.73;;
15831;SDS011;8016;49.928;9.372;2023-03-19T04:57:06;9.23;;;7.00;;
15831;SDS011;8016;49.928;9.372;2023-03-19T04:59:32;8.07;;;7.13;;
15831;SDS011;8016;49.928;9.372;2023-03-19T05:01:58;9.13;;;7.03;;
15831;SDS011;8016;49.928;9.372;2023-03-19T05:04:24;9.00;;;7.20;;
15831;SDS011;8016;49.928;9.372;2023-03-19T05:06:51;11.57;;;7.70;;
15831;SDS011;8016;49.928;9.372;2023-03-19T05:09:17;10.97;;;8.27;;
15831;SDS011;8016;49.928;9.372;2023-03-19T05:11:43;9.10;;;6.83;;
15831;SDS011;8016;49.928;9.372;2023-03-19T05:14:09;9.03;;;6.83;;
15831;SDS011;8016;49.928;9.372;2023-03-19T05:16:35;8.07;;;7.17;;
15831;SDS011;8016;49.928;9.372;2023-03-19T05:19:02;11.33;;;7.40;;
15831;SDS011;8016;49.928;9.372;2023-03-19T05:21:28;10.20;;;7.47;;
15831;SDS011;8016;49.928;9.372;2023-03-19T05:23:54;9.13;;;7.10;;
15831;SDS011;8016;49.928;9.372;2023-03-19T05:26:21;7.67;;;6.87;;
15831;SDS011;8016;49.928;9.372;2023-03-19T05:28:47;10.90;;;6.63;;
15831;SDS011;8016;49.928;9.372;2023-03-19T05:31:13;8.57;;;6.70;;
15831;SDS011;8016;49.928;9.372;2023-03-19T05:33:39;7.53;;;6.73;;
15831;SDS011;8016;49.928;9.372;2023-03-19T05:36:05;10.37;;;6.27;;
15831;SDS011;8016;49.928;9.372;2023-03-19T05:38:32;6.50;;;5.60;;
15831;SDS011;8016;49.928;9.372;2023-03-19T05:41:02;7.03;;;6.40;;
15831;SDS011;8016;49.928;9.372;2023-03-19T05:43:28;7.57;;;6.63;;
15831;SDS011;8016;49.928;9.372;2023-03-19T05:45:54;7.57;;;6.13;;
15831;SDS011;8016;49.928;9.372;2023-03-19T05:48:20;9.90;;;6.47;;
15831;SDS011;8016;49.928;9.372;2023-03-19T05:50:47;11.77;;;6.53;;
15831;SDS011;8016;49.928;9.372;2023-03-19T05:53:13;6.63;;;5.83;;
15831;SDS011;8016;49.928;9.372;2023-03-19T05:55:39;7.50;;;5.93;;
15831;SDS011;8016;49.928;9.372;2023-03-19T05:58:05;9.00;;;6.27;;
15831;SDS011;8016;49.928;9.372;2023-03-19T06:00:31;9.07;;;7.73;;
15831;SDS011;8016;49.928;9.372;2023-03-19T06:02:58;9.40;;;8.23;;
15831;SDS011;8016;49.928;9.372;2023-03-19T06:05:23;11.43;;;8.37;;
15831;SDS011;8016;49.928;9.372;2023-03-19T06:07:50;12.90;;;7.83;;
15831;SDS011;8016;49.928;9.372;2023-03-19T06:10:16;7.80;;;6.20;;
15831;SDS011;8016;49.928;9.372;2023-03-19T06:12:42;7.43;;;6.23;;
15831;SDS011;8016;49.928;9.372;2023-03-19T06:15:08;6.10;;;5.40;;
15831;SDS011;8016;49.928;9.372;2023-03-19T06:17:34;7.37;;;6.40;;
15831;SDS011;8016;49.928;9.372;2023-03-19T06:20:01;10.13;;;7.07;;
15831;SDS011;8016;49.928;9.372;2023-03-19T06:22:27;7.17;;;6.47;;
15831;SDS011;8016;49.928;9.372;2023-03-19T06:24:53;10.77;;;7.60;;
15831;SDS011;8016;49.928;9.372;2023-03-19T06:27:19;8.13;;;6.50;;
15831;SDS011;8016;49.928;9.372;2023-03-19T06:29:45;10.13;;;7.30;;
15831;SDS011;8016;49.928;9.372;2023-03-19T06:32:11;10.83;;;6.93;;
15831;SDS011;8016;49.928;9.372;2023-03-19T06:34:37;9.33;;;7.03;;
15831;SDS011;8016;49.928;9.372;2023-03-19T06:37:03;12.37;;;7.53;;
15831;SDS011;8016;49.928;9.372;2023-03-19T06:39:30;8.80;;;7.07;;
15831;SDS011;8016;49.928;9.372;2023-03-19T06:41:56;9.57;;;7.27;;
15831;SDS011;8016;49.928;9.372;2023-03-19T06:44:22;9.57;;;8.57;;
15831;SDS011;8016;49.928;9.372;2023-03-19T06:46:49;13.73;;;9.33;;
15831;SDS011;8016;49.928;9.372;2023-03-19T06:49:15;16.50;;;10.70;;
15831;SDS011;8016;49.928;9.372;2023-03-19T06:51:41;11.87;;;8.00;;
15831;SDS011;8016;49.928;9.372;2023-03-19T06:54:07;10.07;;;7.47;;
15831;SDS011;8016;49.928;9.372;2023-03-19T06:56:33;23.23;;;16.43;;
15831;SDS011;8016;49.928;9.372;2023-03-19T06:59:00;38.33;;;20.23;;
15831;SDS011;8016;49.928;9.372;2023-03-19T07:01:26;33.90;;;18.13;;
15831;SDS011;8016;49.928;9.372;2023-03-19T07:03:52;30.97;;;17.20;;
15831;SDS011;8016;49.928;9.372;2023-03-19T07:06:19;24.67;;;13.37;;
15831;SDS011;8016;49.928;9.372;2023-03-19T07:08:45;17.87;;;11.87;;
15831;SDS011;8016;49.928;9.372;2023-03-19T07:11:11;16.70;;;10.07;;
15831;SDS011;8016;49.928;9.372;2023-03-19T07:13:37;15.90;;;9.53;;
15831;SDS011;8016;49.928;9.372;2023-03-19T07:16:04;16.90;;;10.07;;
15831;SDS011;8016;49.928;9.372;2023-03-19T07:18:30;18.53;;;10.10;;
15831;SDS011;8016;49.928;9.372;2023-03-19T07:20:56;18.00;;;10.93;;
15831;SDS011;8016;49.928;9.372;2023-03-19T07:23:22;31.00;;;18.77;;
15831;SDS011;8016;49.928;9.372;2023-03-19T07:25:48;42.50;;;25.80;;
15831;SDS011;8016;49.928;9.372;2023-03-19T07:28:14;47.63;;;28.93;;
15831;SDS011;8016;49.928;9.372;2023-03-19T07:30:40;39.37;;;25.97;;
15831;SDS011;8016;49.928;9.372;2023-03-19T07:33:06;39.10;;;26.23;;
15831;SDS011;8016;49.928;9.372;2023-03-19T07:35:32;23.50;;;18.23;;
15831;SDS011;8016;49.928;9.372;2023-03-19T07:37:59;28.20;;;17.73;;
15831;SDS011;8016;49.928;9.372;2023-03-19T07:40:26;30.13;;;20.03;;
15831;SDS011;8016;49.928;9.372;2023-03-19T07:42:52;30.93;;;21.07;;
15831;SDS011;8016;49.928;9.372;2023-03-19T07:45:18;23.37;;;16.40;;
15831;SDS011;8016;49.928;9.372;2023-03-19T07:47:44;15.73;;;12.07;;
15831;SDS011;8016;49.928;9.372;2023-03-19T07:50:11;10.03;;;5.67;;
15831;SDS011;8016;49.928;9.372;2023-03-19T07:52:37;7.50;;;6.20;;
15831;SDS011;8016;49.928;9.372;2023-03-19T07:55:03;5.87;;;5.27;;
15831;SDS011;8016;49.928;9.372;2023-03-19T07:57:29;4.40;;;3.23;;
15831;SDS011;8016;49.928;9.372;2023-03-19T07:59:56;8.17;;;5.20;;
15831;SDS011;8016;49.928;9.372;2023-03-19T08:02:22;4.37;;;3.70;;
15831;SDS011;8016;49.928;9.372;2023-03-19T08:04:48;4.77;;;2.50;;
15831;SDS011;8016;49.928;9.372;2023-03-19T08:07:15;6.30;;;2.77;;
15831;SDS011;8016;49.928;9.372;2023-03-19T08:09:41;8.13;;;2.63;;
15831;SDS011;8016;49.928;9.372;2023-03-19T08:12:07;2.57;;;2.23;;
15831;SDS011;8016;49.928;9.372;2023-03-19T08:14:34;6.17;;;2.43;;
15831;SDS011;8016;49.928;9.372;2023-03-19T08:17:00;3.60;;;2.30;;
15831;SDS011;8016;49.928;9.372;2023-03-19T08:19:26;5.60;;;2.57;;
15831;SDS011;8016;49.928;9.372;2023-03-19T08:21:52;4.60;;;1.90;;
15831;SDS011;8016;49.928;9.372;2023-03-19T08:24:18;4.17;;;2.40;;
15831;SDS011;8016;49.928;9.372;2023-03-19T08:26:44;6.23;;;3.40;;
15831;SDS011;8016;49.928;9.372;2023-03-19T08:29:10;4.23;;;3.20;;
15831;SDS011;8016;49.928;9.372;2023-03-19T08:31:36;6.20;;;4.20;;
15831;SDS011;8016;49.928;9.372;2023-03-19T08:34:02;2.67;;;2.30;;
15831;SDS011;8016;49.928;9.372;2023-03-19T08:36:29;5.90;;;3.00;;
15831;SDS011;8016;49.928;9.372;2023-03-19T08:38:55;3.23;;;2.50;;
15831;SDS011;8016;49.928;9.372;2023-03-19T08:41:22;4.30;;;2.60;;
15831;SDS011;8016;49.928;9.372;2023-03-19T08:43:48;6.70;;;3.33;;
15831;SDS011;8016;49.928;9.372;2023-03-19T08:46:15;6.93;;;3.43;;
15831;SDS011;8016;49.928;9.372;2023-03-19T08:48:40;4.80;;;2.70;;
15831;SDS011;8016;49.928;9.372;2023-03-19T08:51:07;3.40;;;2.13;;
15831;SDS011;8016;49.928;9.372;2023-03-19T08:53:33;2.90;;;1.57;;
15831;SDS011;8016;49.928;9.372;2023-03-19T08:56:00;3.47;;;1.80;;
15831;SDS011;8016;49.928;9.372;2023-03-19T08:58:27;6.10;;;3.47;;
15831;SDS011;8016;49.928;9.372;2023-03-19T09:00:59;4.90;;;2.20;;
15831;SDS011;8016;49.928;9.372;2023-03-19T09:03:26;3.53;;;1.60;;
15831;SDS011;8016;49.928;9.372;2023-03-19T09:05:52;2.67;;;1.50;;
15831;SDS011;8016;49.928;9.372;2023-03-19T09:08:18;2.37;;;2.17;;
15831;SDS011;8016;49.928;9.372;2023-03-19T09:10:44;5.83;;;2.50;;
15831;SDS011;8016;49.928;9.372;2023-03-19T09:13:10;4.43;;;2.97;;
15831;SDS011;8016;49.928;9.372;2023-03-19T09:15:36;3.53;;;2.43;;
15831;SDS011;8016;49.928;9.372;2023-03-19T09:18:02;6.27;;;3.23;;
15831;SDS011;8016;49.928;9.372;2023-03-19T09:20:28;2.50;;;1.60;;
15831;SDS011;8016;49.928;9.372;2023-03-19T09:22:55;2.83;;;1.50;;
15831;SDS011;8016;49.928;9.372;2023-03-19T09:25:21;3.40;;;1.60;;
15831;SDS011;8016;49.928;9.372;2023-03-19T09:27:47;2.70;;;1.50;;
15831;SDS011;8016;49.928;9.372;2023-03-19T09:30:13;2.47;;;1.57;;
15831;SDS011;8016;49.928;9.372;2023-03-19T09:32:39;3.23;;;1.40;;
15831;SDS011;8016;49.928;9.372;2023-03-19T09:35:05;3.23;;;2.27;;
15831;SDS011;8016;49.928;9.372;2023-03-19T09:37:32;9.27;;;6.03;;
15831;SDS011;8016;49.928;9.372;2023-03-19T09:39:58;3.70;;;2.20;;
15831;SDS011;8016;49.928;9.372;2023-03-19T09:44:53;3.90;;;2.17;;
15831;SDS011;8016;49.928;9.372;2023-03-19T09:49:45;2.77;;;1.87;;
15831;SDS011;8016;49.928;9.372;2023-03-19T09:54:44;3.43;;;1.70;;
15831;SDS011;8016;49.928;9.372;2023-03-19T09:57:11;2.47;;;2.07;;
15831;SDS011;8016;49.928;9.372;2023-03-19T09:59:38;2.63;;;1.70;;
15831;SDS011;8016;49.928;9.372;2023-03-19T10:04:40;3.43;;;1.40;;
15831;SDS011;8016;49.928;9.372;2023-03-19T10:09:38;4.07;;;1.50;;
15831;SDS011;8016;49.928;9.372;2023-03-19T10:15:03;1.93;;;1.43;;
15831;SDS011;8016;49.928;9.372;2023-03-19T10:17:37;3.17;;;1.67;;
15831;SDS011;8016;49.928;9.372;2023-03-19T10:20:06;2.10;;;1.37;;
15831;SDS011;8016;49.928;9.372;2023-03-19T10:22:35;3.57;;;1.60;;
15831;SDS011;8016;49.928;9.372;2023-03-19T10:25:02;4.40;;;2.87;;
15831;SDS011;8016;49.928;9.372;2023-03-19T10:27:29;7.97;;;7.17;;
15831;SDS011;8016;49.928;9.372;2023-03-19T10:29:56;1.87;;;1.33;;
15831;SDS011;8016;49.928;9.372;2023-03-19T10:34:52;4.60;;;1.23;;
15831;SDS011;8016;49.928;9.372;2023-03-19T10:37:19;2.70;;;1.97;;
15831;SDS011;8016;49.928;9.372;2023-03-19T10:39:50;3.97;;;2.13;;
15831;SDS011;8016;49.928;9.372;2023-03-19T10:47:45;7.53;;;3.87;;
15831;SDS011;8016;49.928;9.372;2023-03-19T10:50:15;2.93;;;1.70;;
15831;SDS011;8016;49.928;9.372;2023-03-19T10:52:42;6.73;;;6.07;;
15831;SDS011;8016;49.928;9.372;2023-03-19T10:55:15;4.80;;;2.33;;
15831;SDS011;8016;49.928;9.372;2023-03-19T10:57:42;8.43;;;6.00;;
15831;SDS011;8016;49.928;9.372;2023-03-19T11:00:14;13.87;;;8.50;;
15831;SDS011;8016;49.928;9.372;2023-03-19T11:02:48;8.13;;;2.90;;
15831;SDS011;8016;49.928;9.372;2023-03-19T11:07:40;7.37;;;2.27;;
15831;SDS011;8016;49.928;9.372;2023-03-19T11:10:13;4.40;;;1.87;;
15831;SDS011;8016;49.928;9.372;2023-03-19T11:12:40;8.63;;;3.73;;
15831;SDS011;8016;49.928;9.372;2023-03-19T11:15:22;6.00;;;3.40;;
15831;SDS011;8016;49.928;9.372;2023-03-19T11:17:49;6.40;;;2.27;;
15831;SDS011;8016;49.928;9.372;2023-03-19T11:22:49;3.37;;;2.60;;
15831;SDS011;8016;49.928;9.372;2023-03-19T11:25:18;2.37;;;1.63;;
15831;SDS011;8016;49.928;9.372;2023-03-19T11:27:44;9.00;;;2.83;;
15831;SDS011;8016;49.928;9.372;2023-03-19T11:30:22;2.10;;;1.80;;
15831;SDS011;8016;49.928;9.372;2023-03-19T11:32:54;5.57;;;2.30;;
15831;SDS011;8016;49.928;9.372;2023-03-19T11:35:37;6.27;;;3.03;;
15831;SDS011;8016;49.928;9.372;2023-03-19T11:38:07;19.00;;;16.10;;
15831;SDS011;8016;49.928;9.372;2023-03-19T11:40:42;6.33;;;4.00;;
15831;SDS011;8016;49.928;9.372;2023-03-19T11:43:30;2.80;;;1.67;;
15831;SDS011;8016;49.928;9.372;2023-03-19T11:51:13;4.83;;;3.70;;
15831;SDS011;8016;49.928;9.372;2023-03-19T11:58:43;23.97;;;18.83;;
15831;SDS011;8016;49.928;9.372;2023-03-19T12:01:18;26.53;;;13.50;;
15831;SDS011;8016;49.928;9.372;2023-03-19T12:03:53;17.30;;;8.17;;
15831;SDS011;8016;49.928;9.372;2023-03-19T12:09:02;6.87;;;4.27;;
15831;SDS011;8016;49.928;9.372;2023-03-19T12:11:37;4.47;;;2.57;;
15831;SDS011;8016;49.928;9.372;2023-03-19T12:19:04;5.87;;;2.30;;
15831;SDS011;8016;49.928;9.372;2023-03-19T12:34:56;9.90;;;2.37;;
15831;SDS011;8016;49.928;9.372;2023-03-19T12:37:31;3.93;;;2.63;;
15831;SDS011;8016;49.928;9.372;2023-03-19T12:40:04;3.93;;;2.30;;
15831;SDS011;8016;49.928;9.372;2023-03-19T12:42:33;5.53;;;2.17;;
15831;SDS011;8016;49.928;9.372;2023-03-19T12:45:02;3.93;;;1.93;;
15831;SDS011;8016;49.928;9.372;2023-03-19T12:47:32;6.20;;;3.63;;
15831;SDS011;8016;49.928;9.372;2023-03-19T12:50:00;6.40;;;2.40;;
15831;SDS011;8016;49.928;9.372;2023-03-19T12:52:37;3.60;;;2.13;;
15831;SDS011;8016;49.928;9.372;2023-03-19T13:00:23;2.63;;;2.20;;
15831;SDS011;8016;49.928;9.372;2023-03-19T13:05:18;4.37;;;2.33;;
15831;SDS011;8016;49.928;9.372;2023-03-19T13:07:58;4.20;;;2.00;;
15831;SDS011;8016;49.928;9.372;2023-03-19T13:10:26;3.70;;;2.60;;
15831;SDS011;8016;49.928;9.372;2023-03-19T13:12:54;3.67;;;2.43;;
15831;SDS011;8016;49.928;9.372;2023-03-19T13:15:32;4.87;;;3.03;;
15831;SDS011;8016;49.928;9.372;2023-03-19T13:22:58;2.40;;;1.97;;
15831;SDS011;8016;49.928;9.372;2023-03-19T13:25:33;12.77;;;5.00;;
15831;SDS011;8016;49.928;9.372;2023-03-19T13:28:00;5.43;;;2.90;;
15831;SDS011;8016;49.928;9.372;2023-03-19T13:30:26;6.63;;;4.80;;
15831;SDS011;8016;49.928;9.372;2023-03-19T13:33:00;4.53;;;2.53;;
15831;SDS011;8016;49.928;9.372;2023-03-19T13:35:30;6.97;;;2.60;;
15831;SDS011;8016;49.928;9.372;2023-03-19T13:37:59;5.00;;;1.67;;
15831;SDS011;8016;49.928;9.372;2023-03-19T13:40:40;2.83;;;1.53;;
15831;SDS011;8016;49.928;9.372;2023-03-19T13:56:31;3.20;;;2.30;;
15831;SDS011;8016;49.928;9.372;2023-03-19T14:11:54;5.13;;;3.43;;
15831;SDS011;8016;49.928;9.372;2023-03-19T14:14:20;4.20;;;2.83;;
15831;SDS011;8016;49.928;9.372;2023-03-19T14:16:48;4.50;;;2.27;;
15831;SDS011;8016;49.928;9.372;2023-03-19T14:19:17;5.63;;;3.30;;
15831;SDS011;8016;49.928;9.372;2023-03-19T14:22:01;5.70;;;3.30;;
15831;SDS011;8016;49.928;9.372;2023-03-19T14:27:03;10.30;;;8.43;;
15831;SDS011;8016;49.928;9.372;2023-03-19T14:29:30;8.37;;;5.63;;
15831;SDS011;8016;49.928;9.372;2023-03-19T14:32:00;4.30;;;2.50;;
15831;SDS011;8016;49.928;9.372;2023-03-19T14:34:33;8.57;;;3.30;;
15831;SDS011;8016;49.928;9.372;2023-03-19T14:37:02;6.17;;;2.47;;
15831;SDS011;8016;49.928;9.372;2023-03-19T14:39:29;7.13;;;3.30;;
15831;SDS011;8016;49.928;9.372;2023-03-19T14:42:00;5.93;;;3.67;;
15831;SDS011;8016;49.928;9.372;2023-03-19T14:52:34;3.20;;;2.33;;
15831;SDS011;8016;49.928;9.372;2023-03-19T14:55:02;3.67;;;1.80;;
15831;SDS011;8016;49.928;9.372;2023-03-19T14:57:31;2.80;;;1.40;;
15831;SDS011;8016;49.928;9.372;2023-03-19T14:59:58;5.30;;;2.50;;
15831;SDS011;8016;49.928;9.372;2023-03-19T15:04:50;3.57;;;2.00;;
15831;SDS011;8016;49.928;9.372;2023-03-19T15:07:18;4.07;;;2.30;;
15831;SDS011;8016;49.928;9.372;2023-03-19T15:09:44;3.27;;;1.73;;
15831;SDS011;8016;49.928;9.372;2023-03-19T15:12:19;4.20;;;2.57;;
15831;SDS011;8016;49.928;9.372;2023-03-19T15:17:27;5.47;;;2.40;;
15831;SDS011;8016;49.928;9.372;2023-03-19T15:19:54;3.50;;;2.30;;
15831;SDS011;8016;49.928;9.372;2023-03-19T15:22:28;4.53;;;2.13;;
15831;SDS011;8016;49.928;9.372;2023-03-19T15:25:11;6.73;;;2.63;;
15831;SDS011;8016;49.928;9.372;2023-03-19T15:27:38;3.67;;;2.67;;
15831;SDS011;8016;49.928;9.372;2023-03-19T15:30:21;4.00;;;2.40;;
15831;SDS011;8016;49.928;9.372;2023-03-19T15:32:52;6.43;;;2.90;;
15831;SDS011;8016;49.928;9.372;2023-03-19T15:35:19;3.80;;;2.77;;
15831;SDS011;8016;49.928;9.372;2023-03-19T15:37:48;3.77;;;3.33;;
15831;SDS011;8016;49.928;9.372;2023-03-19T15:40:16;4.67;;;3.07;;
15831;SDS011;8016;49.928;9.372;2023-03-19T15:42:45;6.07;;;4.63;;
15831;SDS011;8016;49.928;9.372;2023-03-19T15:45:12;4.70;;;3.43;;
15831;SDS011;8016;49.928;9.372;2023-03-19T15:47:42;3.03;;;2.73;;
15831;SDS011;8016;49.928;9.372;2023-03-19T15:50:11;3.40;;;2.97;;
15831;SDS011;8016;49.928;9.372;2023-03-19T15:52:40;5.57;;;3.00;;
15831;SDS011;8016;49.928;9.372;2023-03-19T15:55:06;4.47;;;3.37;;
15831;SDS011;8016;49.928;9.372;2023-03-19T15:57:33;5.27;;;3.43;;
15831;SDS011;8016;49.928;9.372;2023-03-19T16:00:00;5.00;;;3.30;;
15831;SDS011;8016;49.928;9.372;2023-03-19T16:02:30;6.37;;;4.07;;
15831;SDS011;8016;49.928;9.372;2023-03-19T16:04:56;7.30;;;3.90;;
15831;SDS011;8016;49.928;9.372;2023-03-19T16:09:49;4.80;;;3.20;;
15831;SDS011;8016;49.928;9.372;2023-03-19T16:12:27;5.10;;;3.23;;
15831;SDS011;8016;49.928;9.372;2023-03-19T16:14:56;7.57;;;3.20;;
15831;SDS011;8016;49.928;9.372;2023-03-19T16:17:23;7.43;;;3.27;;
15831;SDS011;8016;49.928;9.372;2023-03-19T16:19:51;4.30;;;2.73;;
15831;SDS011;8016;49.928;9.372;2023-03-19T16:22:24;4.13;;;2.90;;
15831;SDS011;8016;49.928;9.372;2023-03-19T16:24:53;6.33;;;4.23;;
15831;SDS011;8016;49.928;9.372;2023-03-19T16:27:35;7.80;;;3.83;;
15831;SDS011;8016;49.928;9.372;2023-03-19T16:30:03;5.67;;;3.43;;
15831;SDS011;8016;49.928;9.372;2023-03-19T16:32:38;4.60;;;4.10;;
15831;SDS011;8016;49.928;9.372;2023-03-19T16:35:14;10.80;;;8.13;;
15831;SDS011;8016;49.928;9.372;2023-03-19T16:37:43;35.77;;;28.40;;
15831;SDS011;8016;49.928;9.372;2023-03-19T16:42:38;9.40;;;7.57;;
15831;SDS011;8016;49.928;9.372;2023-03-19T16:47:40;8.23;;;2.53;;
15831;SDS011;8016;49.928;9.372;2023-03-19T16:50:06;3.40;;;2.03;;
15831;SDS011;8016;49.928;9.372;2023-03-19T16:52:32;3.73;;;2.10;;
15831;SDS011;8016;49.928;9.372;2023-03-19T16:54:58;7.07;;;3.20;;
15831;SDS011;8016;49.928;9.372;2023-03-19T16:57:25;9.30;;;6.00;;
15831;SDS011;8016;49.928;9.372;2023-03-19T16:59:52;17.57;;;10.40;;
15831;SDS011;8016;49.928;9.372;2023-03-19T17:02:18;5.80;;;3.03;;
15831;SDS011;8016;49.928;9.372;2023-03-19T17:04:44;5.13;;;2.50;;